Time;durP1;ratioP1;P1;durP2;ratioP2;P2;SDS_P1;SDS_P2;PMS_P1;PMS_P2;Temp;Humidity;BMP_temperature;BMP_pressure;BME280_temperature;BME280_humidity;BME280_pressure;Samples;Min_cycle;Max_cycle;Signal;HPM_P1;HPM_P2
2024/04/02 00:04:32;;;;;;;0.60;0.60;;;12.00;33.70;;;;;;10432323;28;20255;-71
2024/04/02 00:09:36;;;;;;;3.00;0.60;;;11.90;33.70;;;;;;10432336;28;20260;-71
2024/04/02 00:14:38;;;;;;;0.50;0.50;;;11.90;34.00;;;;;;10421710;28;20291;-71
2024/04/02 00:19:40;;;;;;;0.60;0.60;;;11.90;34.00;;;;;;10420239;28;20279;-71
2024/04/02 00:24:44;;;;;;;0.70;0.70;;;11.90;34.00;;;;;;10437006;28;21012;-71
2024/04/02 00:29:47;;;;;;;1.27;0.60;;;11.90;34.30;;;;;;10428785;28;21139;-72
2024/04/02 00:34:49;;;;;;;0.50;0.50;;;12.00;34.00;;;;;;10430576;28;20291;-71
2024/04/02 00:39:52;;;;;;;0.60;0.60;;;12.00;34.00;;;;;;10442379;28;20298;-71
2024/04/02 00:44:55;;;;;;;0.60;0.60;;;12.00;34.30;;;;;;10422828;28;20256;-71
2024/04/02 00:49:57;;;;;;;0.53;0.53;;;12.00;34.30;;;;;;10426236;28;20739;-71
2024/04/02 00:55:02;;;;;;;1.07;0.70;;;12.00;34.20;;;;;;10423620;28;20746;-71
2024/04/02 01:00:06;;;;;;;0.60;0.60;;;12.00;34.40;;;;;;10442447;28;20354;-71
2024/04/02 01:05:08;;;;;;;0.60;0.60;;;12.00;34.20;;;;;;10426630;28;20257;-71
2024/04/02 01:10:11;;;;;;;0.60;0.60;;;12.10;34.10;;;;;;10423389;28;20253;-71
2024/04/02 01:15:20;;;;;;;1.03;0.60;;;12.10;34.30;;;;;;10423542;28;20317;-71
2024/04/02 01:20:22;;;;;;;0.60;0.60;;;12.10;35.00;;;;;;10427022;28;20275;-72
2024/04/02 01:25:26;;;;;;;0.60;0.60;;;12.10;34.10;;;;;;10424250;28;20264;-71
2024/04/02 01:30:28;;;;;;;0.60;0.60;;;12.10;34.40;;;;;;10422120;28;20302;-71
2024/04/02 01:35:30;;;;;;;0.60;0.60;;;12.10;34.30;;;;;;10432824;28;20742;-71
2024/04/02 01:40:34;;;;;;;0.93;0.50;;;12.10;34.30;;;;;;10423237;28;20256;-71
2024/04/02 01:45:37;;;;;;;0.60;0.60;;;12.10;34.40;;;;;;10423692;28;20302;-71
2024/04/02 01:50:40;;;;;;;0.50;0.50;;;12.00;34.30;;;;;;10421213;28;20264;-71
2024/04/02 01:55:45;;;;;;;0.57;0.57;;;12.00;34.30;;;;;;10425590;28;20326;-71
2024/04/02 02:00:47;;;;;;;0.60;0.60;;;12.00;34.70;;;;;;10421005;28;20306;-71
2024/04/02 02:05:49;;;;;;;0.63;0.50;;;12.00;34.30;;;;;;10425459;28;20249;-71
2024/04/02 02:10:56;;;;;;;0.50;0.50;;;12.10;34.20;;;;;;10425945;28;20241;-71
2024/04/02 02:15:59;;;;;;;0.57;0.57;;;12.10;34.80;;;;;;10425890;28;20248;-71
2024/04/02 02:21:01;;;;;;;0.60;0.60;;;12.10;34.30;;;;;;10420631;28;20260;-71
2024/04/02 02:26:05;;;;;;;0.70;0.70;;;12.00;34.20;;;;;;10417030;28;20316;-71
2024/04/02 02:31:07;;;;;;;0.67;0.63;;;12.00;34.60;;;;;;10415018;28;20261;-71
2024/04/02 02:36:10;;;;;;;0.60;0.60;;;12.10;34.30;;;;;;10425226;28;20307;-71
2024/04/02 02:41:13;;;;;;;0.50;0.50;;;12.00;34.30;;;;;;10415701;28;20310;-71
2024/04/02 02:46:16;;;;;;;0.50;0.50;;;12.00;34.50;;;;;;10416918;28;20252;-71
2024/04/02 02:51:18;;;;;;;0.43;0.43;;;12.00;34.40;;;;;;10418063;28;20244;-70
2024/04/02 02:56:23;;;;;;;0.50;0.50;;;12.00;34.40;;;;;;10420506;28;20245;-71
2024/04/02 03:01:25;;;;;;;0.90;0.73;;;11.90;34.50;;;;;;10421560;28;20281;-71
2024/04/02 03:06:27;;;;;;;1.70;0.90;;;11.90;34.30;;;;;;10419994;28;20268;-71
2024/04/02 03:11:31;;;;;;;0.60;0.60;;;11.90;34.30;;;;;;10420235;28;20928;-71
2024/04/02 03:16:33;;;;;;;0.60;0.60;;;11.90;34.60;;;;;;10419944;28;20781;-71
2024/04/02 03:21:35;;;;;;;0.60;0.60;;;11.90;34.40;;;;;;10421839;28;20252;-71
2024/04/02 03:26:38;;;;;;;0.67;0.67;;;11.90;34.40;;;;;;10420289;28;20244;-71
2024/04/02 03:31:41;;;;;;;1.03;0.53;;;11.90;34.70;;;;;;10438611;28;20264;-71
2024/04/02 03:36:43;;;;;;;0.60;0.60;;;11.90;34.50;;;;;;10437471;28;20291;-71
2024/04/02 03:41:46;;;;;;;0.50;0.50;;;11.90;34.60;;;;;;10417721;28;20256;-71
2024/04/02 03:46:48;;;;;;;0.60;0.60;;;11.80;34.50;;;;;;10418845;28;20241;-71
2024/04/02 03:51:51;;;;;;;0.70;0.50;;;11.80;34.40;;;;;;10414942;28;20275;-71
2024/04/02 03:56:54;;;;;;;0.70;0.50;;;11.90;34.50;;;;;;10419111;28;20294;-71
2024/04/02 04:01:56;;;;;;;0.60;0.60;;;11.80;34.60;;;;;;10423934;28;20327;-71
2024/04/02 04:06:59;;;;;;;0.57;0.50;;;11.80;34.40;;;;;;10426010;28;20300;-71
2024/04/02 04:12:03;;;;;;;0.50;0.50;;;11.80;34.40;;;;;;10428561;28;20735;-71
2024/04/02 04:17:05;;;;;;;1.37;0.60;;;11.70;34.60;;;;;;10428501;28;20259;-71
2024/04/02 04:22:07;;;;;;;1.40;0.60;;;11.70;34.40;;;;;;10426305;28;20302;-71
2024/04/02 04:27:11;;;;;;;0.80;0.80;;;11.70;34.30;;;;;;10426868;28;20252;-71
2024/04/02 04:32:13;;;;;;;1.00;1.00;;;11.80;34.70;;;;;;10429829;28;20727;-71
2024/04/02 04:37:15;;;;;;;0.70;0.70;;;11.80;34.40;;;;;;10423159;28;20253;-71
2024/04/02 04:42:19;;;;;;;1.17;0.53;;;11.80;34.40;;;;;;10422805;28;20296;-71
2024/04/02 04:47:21;;;;;;;0.60;0.60;;;11.70;34.50;;;;;;10423719;28;20248;-71
2024/04/02 04:52:24;;;;;;;0.87;0.60;;;11.70;34.40;;;;;;10431272;28;22400;-71
2024/04/02 04:57:27;;;;;;;0.70;0.70;;;11.70;34.40;;;;;;10423777;28;20302;-71
2024/04/02 05:02:29;;;;;;;0.90;0.70;;;11.70;34.70;;;;;;10437125;28;20253;-71
2024/04/02 05:07:31;;;;;;;0.50;0.50;;;11.70;34.60;;;;;;10423548;28;20342;-71
2024/04/02 05:12:35;;;;;;;0.60;0.60;;;11.70;34.60;;;;;;10418154;28;20253;-71
2024/04/02 05:17:37;;;;;;;0.80;0.80;;;11.70;35.00;;;;;;10421707;28;20270;-71
2024/04/02 05:22:40;;;;;;;0.60;0.60;;;11.70;34.60;;;;;;10423241;28;20248;-71
2024/04/02 05:27:44;;;;;;;0.83;0.80;;;11.70;34.80;;;;;;10421946;28;20250;-71
2024/04/02 05:32:46;;;;;;;0.67;0.67;;;11.70;34.80;;;;;;10416661;28;20303;-71
2024/04/02 05:37:51;;;;;;;1.80;1.70;;;11.70;34.70;;;;;;10424437;28;20241;-71
2024/04/02 05:42:55;;;;;;;0.80;0.73;;;11.70;34.70;;;;;;10424105;28;20253;-71
2024/04/02 05:47:57;;;;;;;0.80;0.80;;;11.70;35.10;;;;;;10437365;28;20298;-71
2024/04/02 05:52:59;;;;;;;0.70;0.70;;;11.70;34.80;;;;;;10424290;28;20245;-71
2024/04/02 05:58:03;;;;;;;1.83;1.57;;;11.80;34.80;;;;;;10425891;28;20307;-71
2024/04/02 06:03:05;;;;;;;0.80;0.70;;;11.80;35.00;;;;;;10424677;28;20241;-71
2024/04/02 06:08:08;;;;;;;0.60;0.60;;;11.90;34.80;;;;;;10418839;28;20252;-71
2024/04/02 06:13:12;;;;;;;0.70;0.70;;;11.90;34.90;;;;;;10423570;28;20261;-71
2024/04/02 06:18:16;;;;;;;0.70;0.70;;;11.90;34.90;;;;;;10419289;28;20233;-71
2024/04/02 06:23:18;;;;;;;0.80;0.80;;;11.90;34.90;;;;;;10414953;28;20307;-71
2024/04/02 06:28:22;;;;;;;0.80;0.80;;;11.90;35.00;;;;;;10421158;28;20734;-71
2024/04/02 06:33:24;;;;;;;0.80;0.80;;;12.00;35.30;;;;;;10422265;28;20743;-71
2024/04/02 06:38:26;;;;;;;0.67;0.67;;;12.10;34.90;;;;;;10431043;28;20262;-71
2024/04/02 06:43:31;;;;;;;0.60;0.60;;;12.20;34.80;;;;;;10420081;28;20999;-71
2024/04/02 06:48:33;;;;;;;0.93;0.80;;;12.30;34.80;;;;;;10418010;28;20255;-71
2024/04/02 06:53:36;;;;;;;0.93;0.80;;;12.30;34.60;;;;;;10419578;28;20287;-71
2024/04/02 06:58:39;;;;;;;0.70;0.63;;;12.30;34.70;;;;;;10414914;28;20276;-71
2024/04/02 07:03:42;;;;;;;1.60;0.80;;;12.40;35.10;;;;;;10417808;28;20295;-71
2024/04/02 07:08:46;;;;;;;0.60;0.60;;;12.50;35.00;;;;;;10417628;28;20244;-71
2024/04/02 07:13:49;;;;;;;0.50;0.50;;;12.60;34.70;;;;;;10418616;28;20251;-71
2024/04/02 07:18:52;;;;;;;0.60;0.60;;;12.70;35.00;;;;;;10420036;28;20237;-71
2024/04/02 07:23:54;;;;;;;1.90;0.80;;;12.80;34.70;;;;;;10414979;28;20278;-71
2024/04/02 07:28:57;;;;;;;0.80;0.80;;;12.90;34.60;;;;;;10416671;28;21132;-71
2024/04/02 07:33:59;;;;;;;0.90;0.90;;;13.00;34.60;;;;;;10416824;28;20678;-71
2024/04/02 07:39:05;;;;;;;0.67;0.67;;;13.10;34.50;;;;;;10430342;28;20245;-71
2024/04/02 07:44:08;;;;;;;0.60;0.60;;;13.20;34.50;;;;;;10425104;28;20245;-71
2024/04/02 07:49:10;;;;;;;0.57;0.57;;;13.30;34.40;;;;;;10420292;28;20245;-71
2024/04/02 07:54:14;;;;;;;0.70;0.70;;;13.40;34.40;;;;;;10423946;28;20310;-71
2024/04/02 07:59:18;;;;;;;0.60;0.60;;;13.60;34.20;;;;;;10424030;28;20662;-71
2024/04/02 08:04:20;;;;;;;0.70;0.70;;;13.70;33.60;;;;;;10423097;28;20265;-71
2024/04/02 08:09:22;;;;;;;0.67;0.67;;;13.70;33.50;;;;;;10423122;28;20248;-71
2024/04/02 08:14:31;;;;;;;0.63;0.63;;;13.70;33.40;;;;;;10430382;28;20652;-71
2024/04/02 08:19:33;;;;;;;0.50;0.50;;;13.70;33.30;;;;;;10422956;28;20244;-71
2024/04/02 08:24:36;;;;;;;0.83;0.60;;;13.80;33.40;;;;;;10430083;28;20347;-71
2024/04/02 08:29:40;;;;;;;0.83;0.80;;;13.80;33.30;;;;;;10418767;28;20248;-71
2024/04/02 08:34:42;;;;;;;0.70;0.70;;;13.90;33.40;;;;;;10421293;28;20331;-71
2024/04/02 08:39:45;;;;;;;0.50;0.50;;;14.00;33.50;;;;;;10419558;28;20245;-71
2024/04/02 08:44:49;;;;;;;1.60;0.80;;;14.10;33.30;;;;;;10421390;28;20287;-71
2024/04/02 08:49:53;;;;;;;0.80;0.50;;;14.30;33.10;;;;;;10422441;28;20234;-71
2024/04/02 08:54:55;;;;;;;0.50;0.50;;;14.40;32.70;;;;;;10433589;28;20357;-71
2024/04/02 09:00:05;;;;;;;0.60;0.60;;;14.50;32.50;;;;;;10427863;28;20312;-71
2024/04/02 09:05:08;;;;;;;0.40;0.40;;;14.40;33.10;;;;;;10423379;28;20756;-71
2024/04/02 09:10:11;;;;;;;0.40;0.40;;;14.40;32.40;;;;;;10424686;28;20241;-71
2024/04/02 09:15:16;;;;;;;0.70;0.40;;;14.50;32.40;;;;;;10421357;28;20256;-71
2024/04/02 09:20:19;;;;;;;0.50;0.50;;;14.60;32.10;;;;;;10441603;28;20291;-71
2024/04/02 09:25:23;;;;;;;0.67;0.60;;;14.80;32.20;;;;;;10420896;28;20286;-71
2024/04/02 09:30:27;;;;;;;0.57;0.57;;;14.90;32.00;;;;;;10419930;28;20263;-71
2024/04/02 09:35:54;;;;;;;0.50;0.50;;;15.00;32.10;;;;;;10426030;28;20263;-71
2024/04/02 09:40:58;;;;;;;0.60;0.60;;;15.10;32.20;;;;;;10422315;28;20328;-71
2024/04/02 09:46:03;;;;;;;0.67;0.40;;;15.20;31.60;;;;;;10437345;28;20248;-70
2024/04/02 09:51:06;;;;;;;0.50;0.50;;;15.20;31.10;;;;;;10423584;28;20237;-71
2024/04/02 09:56:11;;;;;;;0.60;0.60;;;15.10;31.20;;;;;;10421051;28;20267;-71
2024/04/02 10:01:20;;;;;;;0.70;0.70;;;15.10;31.20;;;;;;10423670;28;20306;-71
2024/04/02 10:06:22;;;;;;;0.63;0.60;;;15.20;30.40;;;;;;10426724;28;20278;-71
2024/04/02 10:11:32;;;;;;;0.73;0.60;;;15.40;30.90;;;;;;10432408;28;20307;-71
2024/04/02 10:16:39;;;;;;;1.13;0.60;;;15.60;31.00;;;;;;10423115;28;20366;-72
2024/04/02 10:21:44;;;;;;;0.57;0.57;;;15.70;30.00;;;;;;10419898;28;20727;-71
2024/04/02 10:26:46;;;;;;;1.60;0.80;;;15.80;30.00;;;;;;10420379;28;20792;-71
2024/04/02 10:31:51;;;;;;;0.77;0.73;;;15.70;30.30;;;;;;10419858;28;20257;-71
2024/04/02 10:36:53;;;;;;;0.57;0.57;;;15.70;29.80;;;;;;10415835;28;20728;-71
2024/04/02 10:41:56;;;;;;;2.50;2.17;;;15.70;29.90;;;;;;10419853;28;20294;-71
2024/04/02 10:47:01;;;;;;;0.97;0.80;;;15.60;30.00;;;;;;10422199;28;20245;-71
2024/04/02 10:52:06;;;;;;;1.97;0.70;;;15.40;29.90;;;;;;10418527;28;20252;-71
2024/04/02 10:57:09;;;;;;;0.83;0.70;;;15.20;30.20;;;;;;10422477;28;20248;-71
2024/04/02 11:02:19;;;;;;;0.80;0.60;;;15.00;30.70;;;;;;10420966;28;20253;-71
2024/04/02 11:07:22;;;;;;;0.63;0.50;;;14.80;31.10;;;;;;10420945;28;23358;-71
2024/04/02 11:12:25;;;;;;;1.57;0.70;;;14.60;30.70;;;;;;10419117;28;20244;-71
2024/04/02 11:17:29;;;;;;;0.70;0.70;;;14.50;31.20;;;;;;10415455;28;20252;-71
2024/04/02 11:28:04;;;;;;;1.40;0.80;;;14.40;31.00;;;;;;10421917;28;20252;-71
2024/04/02 11:33:08;;;;;;;1.20;0.80;;;14.50;31.10;;;;;;10430284;28;20259;-71
2024/04/02 11:38:10;;;;;;;1.30;0.90;;;14.70;31.80;;;;;;10433349;28;20252;-71
2024/04/02 11:43:13;;;;;;;0.93;0.70;;;15.00;31.50;;;;;;10430061;28;20276;-71
2024/04/02 11:48:16;;;;;;;2.13;0.87;;;15.20;31.50;;;;;;10429381;28;20253;-71
2024/04/02 11:53:18;;;;;;;0.60;0.60;;;15.50;30.40;;;;;;10416036;28;20265;-71
2024/04/02 12:03:41;;;;;;;1.23;0.80;;;15.60;30.10;;;;;;10435233;28;20253;-71
2024/04/02 12:08:44;;;;;;;2.00;0.83;;;15.60;29.70;;;;;;10436318;28;20257;-71
2024/04/02 12:13:48;;;;;;;1.83;0.80;;;15.60;29.80;;;;;;10413544;28;20257;-71
2024/04/02 12:18:53;;;;;;;1.73;0.80;;;15.70;29.70;;;;;;10418645;28;20749;-70
2024/04/02 12:23:55;;;;;;;1.20;0.70;;;15.70;29.90;;;;;;10428457;28;20252;-70
2024/04/02 12:28:58;;;;;;;1.20;0.80;;;15.80;29.00;;;;;;10429546;28;20249;-71
2024/04/02 12:34:01;;;;;;;1.20;0.80;;;15.90;28.80;;;;;;10424169;28;20884;-71
2024/04/02 12:39:03;;;;;;;1.80;0.90;;;15.90;28.50;;;;;;10423926;28;20245;-71
2024/04/02 12:44:07;;;;;;;1.90;0.90;;;16.00;28.80;;;;;;10422664;28;20250;-71
2024/04/02 12:49:12;;;;;;;1.00;0.70;;;16.10;28.80;;;;;;10424642;28;20275;-71
2024/04/02 12:54:14;;;;;;;1.23;0.80;;;16.20;28.30;;;;;;10425814;28;20253;-71
2024/04/02 12:59:16;;;;;;;0.80;0.80;;;16.40;28.40;;;;;;10441345;28;20252;-71
2024/04/02 13:04:23;;;;;;;3.00;0.80;;;16.50;28.10;;;;;;10420520;28;20283;-71
2024/04/02 13:09:28;;;;;;;0.60;0.60;;;16.50;27.90;;;;;;10421338;28;21163;-71
2024/04/02 13:14:30;;;;;;;1.13;0.60;;;16.60;27.80;;;;;;10425453;28;20260;-71
2024/04/02 13:19:33;;;;;;;2.53;0.60;;;16.70;28.20;;;;;;10423594;28;20367;-71
2024/04/02 13:24:36;;;;;;;0.93;0.60;;;16.70;28.00;;;;;;10427410;28;20327;-70
2024/04/02 13:29:38;;;;;;;0.80;0.70;;;16.70;28.40;;;;;;10436209;28;20279;-71
2024/04/02 13:34:43;;;;;;;1.37;0.60;;;16.80;28.20;;;;;;10421539;28;20275;-71
2024/04/02 13:39:46;;;;;;;0.97;0.77;;;16.90;28.10;;;;;;10421319;28;20256;-71
2024/04/02 13:44:49;;;;;;;1.33;0.70;;;17.00;28.10;;;;;;10419750;28;20280;-71
2024/04/02 13:49:53;;;;;;;0.87;0.70;;;17.00;27.70;;;;;;10416770;28;20299;-71
2024/04/02 13:54:55;;;;;;;1.27;0.80;;;17.10;27.20;;;;;;10422989;28;20334;-71
2024/04/02 13:59:58;;;;;;;0.87;0.70;;;17.10;27.20;;;;;;10425105;28;20237;-71
2024/04/02 14:05:02;;;;;;;0.77;0.70;;;17.20;27.20;;;;;;10425124;28;20279;-71
2024/04/02 14:10:04;;;;;;;0.90;0.70;;;17.20;26.60;;;;;;10423034;28;20334;-71
2024/04/02 14:15:07;;;;;;;2.23;0.50;;;17.20;26.90;;;;;;10422188;28;20670;-71
2024/04/02 14:20:11;;;;;;;0.43;0.43;;;17.20;27.10;;;;;;10439060;28;20268;-71
2024/04/02 14:25:13;;;;;;;1.50;0.80;;;17.20;26.60;;;;;;10417620;28;20253;-71
2024/04/02 14:30:15;;;;;;;0.57;0.57;;;17.10;26.90;;;;;;10417318;28;20253;-71
2024/04/02 14:35:19;;;;;;;0.63;0.63;;;17.10;27.00;;;;;;10417263;28;20249;-71
2024/04/02 14:40:22;;;;;;;1.00;0.60;;;17.10;26.80;;;;;;10418879;28;20726;-71
2024/04/02 14:45:24;;;;;;;0.60;0.60;;;17.00;26.50;;;;;;10411042;28;20303;-71
2024/04/02 14:50:27;;;;;;;0.83;0.70;;;17.00;26.30;;;;;;10423692;28;20306;-71
2024/04/02 14:55:29;;;;;;;0.90;0.60;;;17.00;25.90;;;;;;10435449;28;21127;-70
2024/04/02 15:00:32;;;;;;;0.70;0.70;;;16.90;26.50;;;;;;10418188;28;20322;-71
2024/04/02 15:05:36;;;;;;;0.60;0.60;;;16.90;26.30;;;;;;10416295;28;20274;-71
2024/04/02 15:10:38;;;;;;;1.03;0.70;;;16.90;25.80;;;;;;10421824;28;20676;-71
2024/04/02 15:15:40;;;;;;;0.90;0.80;;;17.00;26.10;;;;;;10419226;28;20321;-71
2024/04/02 15:20:47;;;;;;;0.83;0.80;;;17.10;26.10;;;;;;10417090;28;20780;-71
2024/04/02 15:25:52;;;;;;;0.87;0.60;;;17.10;25.30;;;;;;10423284;28;20809;-71
2024/04/02 15:30:54;;;;;;;0.60;0.60;;;17.10;25.50;;;;;;10422414;28;20733;-71
2024/04/02 15:36:05;;;;;;;0.73;0.63;;;17.20;26.00;;;;;;10416868;28;20358;-71
2024/04/02 15:41:12;;;;;;;0.60;0.60;;;17.20;25.30;;;;;;10416839;28;20255;-71
2024/04/02 15:46:14;;;;;;;0.97;0.70;;;17.20;25.50;;;;;;10416240;28;20249;-71
2024/04/02 15:51:17;;;;;;;2.40;0.80;;;17.20;25.70;;;;;;10412802;28;20844;-71
2024/04/02 15:56:20;;;;;;;3.13;0.70;;;17.20;25.30;;;;;;10430502;28;20792;-70
2024/04/02 16:01:23;;;;;;;1.17;0.60;;;17.20;25.20;;;;;;10431402;28;20248;-71
2024/04/02 16:06:28;;;;;;;5.87;4.27;;;17.10;24.80;;;;;;10420025;28;20291;-71
2024/04/02 16:11:31;;;;;;;9.43;6.47;;;17.00;24.40;;;;;;10427680;28;20321;-70
2024/04/02 16:16:33;;;;;;;6.40;5.40;;;17.00;24.90;;;;;;10420671;28;20237;-70
2024/04/02 16:21:37;;;;;;;1.47;1.30;;;17.00;24.90;;;;;;10424739;28;20249;-71
2024/04/02 16:26:41;;;;;;;2.93;1.10;;;17.00;24.70;;;;;;10423939;28;20237;-71
2024/04/02 16:31:46;;;;;;;1.27;0.90;;;17.00;25.00;;;;;;10421900;28;20248;-70
2024/04/02 16:36:49;;;;;;;1.43;1.27;;;17.00;25.00;;;;;;10422999;28;20251;-71
2024/04/02 16:41:52;;;;;;;0.73;0.70;;;16.90;24.70;;;;;;10424608;28;20245;-71
2024/04/02 16:46:54;;;;;;;0.80;0.80;;;16.90;24.50;;;;;;10421656;28;20249;-71
2024/04/02 16:51:58;;;;;;;1.20;0.77;;;16.90;24.50;;;;;;10428668;28;20240;-70
2024/04/02 16:57:00;;;;;;;0.63;0.63;;;16.90;24.30;;;;;;10422743;28;20245;-71
2024/04/02 17:02:06;;;;;;;1.50;1.10;;;16.90;24.70;;;;;;10429114;28;20298;-71
2024/04/02 17:07:10;;;;;;;1.40;1.00;;;16.80;24.50;;;;;;10422802;28;20244;-71
2024/04/02 17:12:12;;;;;;;1.00;1.00;;;16.70;24.50;;;;;;10425450;28;20248;-71
2024/04/02 17:17:14;;;;;;;1.37;1.20;;;16.60;24.70;;;;;;10423751;28;20272;-71
2024/04/02 17:22:18;;;;;;;1.30;1.20;;;16.50;24.90;;;;;;10427842;28;20256;-71
2024/04/02 17:27:22;;;;;;;1.30;1.20;;;16.30;24.90;;;;;;10420654;28;20252;-71
2024/04/02 17:32:24;;;;;;;1.60;1.03;;;16.20;25.20;;;;;;10437833;28;20257;-71
2024/04/02 17:37:28;;;;;;;1.97;1.00;;;16.20;25.40;;;;;;10426855;28;20295;-71
2024/04/02 17:42:31;;;;;;;1.57;1.47;;;16.10;25.40;;;;;;10412905;28;20305;-71
2024/04/02 17:47:33;;;;;;;1.07;1.03;;;16.00;25.60;;;;;;10430434;28;20299;-71
2024/04/02 17:52:36;;;;;;;1.10;1.00;;;15.80;25.70;;;;;;10418112;28;20915;-71
2024/04/02 17:57:42;;;;;;;1.10;0.83;;;15.80;25.70;;;;;;10415924;28;21368;-71
2024/04/02 18:02:46;;;;;;;1.03;0.77;;;15.70;25.70;;;;;;10426013;28;20731;-71
2024/04/02 18:07:50;;;;;;;2.17;0.60;;;15.60;25.70;;;;;;10419359;28;20247;-70
2024/04/02 18:12:52;;;;;;;0.83;0.60;;;15.50;25.60;;;;;;10419676;28;20772;-71
2024/04/02 18:17:54;;;;;;;0.77;0.70;;;15.40;25.70;;;;;;10418721;28;20245;-70
2024/04/02 18:22:57;;;;;;;0.90;0.60;;;15.30;25.70;;;;;;10437046;28;20298;-70
2024/04/02 18:28:00;;;;;;;1.00;0.60;;;15.20;25.70;;;;;;10422520;28;20244;-71
2024/04/02 18:33:02;;;;;;;2.13;0.87;;;15.20;25.80;;;;;;10431118;28;20267;-71
2024/04/02 18:38:06;;;;;;;2.13;2.03;;;15.10;25.80;;;;;;10418799;28;20299;-71
2024/04/02 18:43:08;;;;;;;2.40;2.20;;;15.00;25.80;;;;;;10433975;28;20710;-70
2024/04/02 18:48:11;;;;;;;2.50;1.80;;;14.90;25.90;;;;;;10417426;28;20248;-70
2024/04/02 18:53:14;;;;;;;1.87;1.60;;;14.80;26.00;;;;;;10436533;28;20257;-71
2024/04/02 18:58:16;;;;;;;1.93;1.50;;;14.70;26.00;;;;;;10421765;28;20278;-71
2024/04/02 19:03:18;;;;;;;1.80;1.40;;;14.60;26.10;;;;;;10434311;28;20257;-71
2024/04/02 19:08:22;;;;;;;2.37;1.90;;;14.60;26.20;;;;;;10421476;28;20256;-71
2024/04/02 19:13:25;;;;;;;2.20;1.77;;;14.50;26.20;;;;;;10416612;28;20267;-70
2024/04/02 19:18:27;;;;;;;2.60;2.00;;;14.50;26.30;;;;;;10422506;28;20236;-71
2024/04/02 19:23:32;;;;;;;2.23;1.40;;;14.50;26.30;;;;;;10417746;28;20289;-70
2024/04/02 19:28:34;;;;;;;1.13;1.03;;;14.40;26.40;;;;;;10432310;28;20303;-71
2024/04/02 19:33:36;;;;;;;1.27;1.17;;;14.40;26.50;;;;;;10427650;28;20315;-71
2024/04/02 19:38:40;;;;;;;1.33;1.03;;;14.30;26.40;;;;;;10431691;28;20245;-71
2024/04/02 19:43:42;;;;;;;1.13;1.07;;;14.20;26.50;;;;;;10420358;28;20257;-71
2024/04/02 19:48:45;;;;;;;0.80;0.80;;;14.10;26.50;;;;;;10418812;28;20238;-71
2024/04/02 19:53:50;;;;;;;1.00;0.90;;;14.00;26.70;;;;;;10434604;28;20256;-71
2024/04/02 19:58:56;;;;;;;1.33;1.00;;;13.80;26.80;;;;;;10414513;28;20807;-70
2024/04/02 20:03:58;;;;;;;1.63;1.10;;;13.80;26.90;;;;;;10412148;28;20257;-71
2024/04/02 20:09:06;;;;;;;1.83;1.23;;;13.70;26.90;;;;;;10417984;28;20252;-70
2024/04/02 20:14:08;;;;;;;2.97;1.10;;;13.60;27.10;;;;;;10432373;28;20711;-70
2024/04/02 20:19:11;;;;;;;1.20;1.10;;;13.50;27.10;;;;;;10422583;28;20256;-71
2024/04/02 20:24:15;;;;;;;1.10;1.00;;;13.50;27.20;;;;;;10416514;28;20318;-71
2024/04/02 20:29:17;;;;;;;0.83;0.83;;;13.50;27.30;;;;;;10417026;28;20291;-71
2024/04/02 20:34:19;;;;;;;0.90;0.90;;;13.40;27.30;;;;;;10417216;28;20307;-71
2024/04/02 20:39:22;;;;;;;0.90;0.80;;;13.30;27.40;;;;;;10413316;28;20330;-71
2024/04/02 20:44:25;;;;;;;1.30;1.20;;;13.20;27.50;;;;;;10418750;28;20303;-71
2024/04/02 20:49:31;;;;;;;1.60;1.20;;;13.20;27.60;;;;;;10422711;28;20245;-71
2024/04/02 20:54:35;;;;;;;2.37;1.00;;;13.20;27.80;;;;;;10424838;28;20259;-70
2024/04/02 20:59:37;;;;;;;0.80;0.80;;;13.10;27.70;;;;;;10425440;28;20314;-71
2024/04/02 21:04:40;;;;;;;1.20;0.70;;;13.10;27.60;;;;;;10425359;28;20256;-71
2024/04/02 21:09:45;;;;;;;0.87;0.60;;;13.10;27.70;;;;;;10425402;28;20302;-71
2024/04/02 21:14:48;;;;;;;0.90;0.73;;;13.00;27.90;;;;;;10423630;28;20264;-71
2024/04/02 21:19:50;;;;;;;2.33;0.90;;;12.90;27.80;;;;;;10423575;28;20348;-71
2024/04/02 21:24:53;;;;;;;0.60;0.60;;;12.90;27.80;;;;;;10435858;28;20253;-70
2024/04/02 21:29:56;;;;;;;0.93;0.80;;;12.80;27.90;;;;;;10424014;28;20939;-71
2024/04/02 21:34:58;;;;;;;0.80;0.80;;;12.80;27.80;;;;;;10418644;28;20792;-71
2024/04/02 21:40:02;;;;;;;0.83;0.70;;;12.70;27.80;;;;;;10420393;28;20251;-71
2024/04/02 21:45:05;;;;;;;0.93;0.87;;;12.70;28.00;;;;;;10420567;28;20253;-71
2024/04/02 21:50:07;;;;;;;1.17;1.00;;;12.60;27.90;;;;;;10437982;28;20309;-71
2024/04/02 21:55:11;;;;;;;1.20;1.10;;;12.60;27.90;;;;;;10424238;28;20286;-71
2024/04/02 22:00:19;;;;;;;1.93;1.23;;;12.50;28.10;;;;;;10436777;28;20253;-71
2024/04/02 22:05:21;;;;;;;1.90;1.40;;;12.30;28.10;;;;;;10440660;28;20304;-71
2024/04/02 22:10:25;;;;;;;4.03;1.47;;;12.10;28.10;;;;;;10418882;28;20271;-71
2024/04/02 22:15:27;;;;;;;2.07;1.23;;;11.90;28.40;;;;;;10438862;28;20322;-71
2024/04/02 22:20:29;;;;;;;2.20;1.43;;;11.70;28.30;;;;;;10419743;28;20366;-71
2024/04/02 22:25:33;;;;;;;1.70;1.23;;;11.60;28.50;;;;;;10421591;28;20256;-71
2024/04/02 22:30:35;;;;;;;1.77;1.20;;;11.40;28.70;;;;;;10420686;28;20244;-71
2024/04/02 22:35:38;;;;;;;1.83;1.27;;;11.30;28.80;;;;;;10422762;28;20256;-71
2024/04/02 22:40:41;;;;;;;3.97;1.30;;;11.20;29.00;;;;;;10422242;28;20249;-71
2024/04/02 22:45:44;;;;;;;1.47;1.20;;;11.00;29.00;;;;;;10421556;28;20295;-71
2024/04/02 22:50:46;;;;;;;1.43;1.33;;;11.00;29.00;;;;;;10427553;28;20802;-71
2024/04/02 22:55:52;;;;;;;1.70;1.20;;;10.90;28.90;;;;;;10418754;28;20279;-71
2024/04/02 23:00:54;;;;;;;1.40;1.30;;;10.90;29.10;;;;;;10417924;28;20255;-71
2024/04/02 23:05:56;;;;;;;1.47;1.23;;;10.80;28.90;;;;;;10416057;28;20302;-71
2024/04/02 23:11:00;;;;;;;1.43;1.33;;;10.70;28.80;;;;;;10419517;28;20253;-71
2024/04/02 23:16:02;;;;;;;1.40;1.20;;;10.50;29.20;;;;;;10423328;28;20635;-71
2024/04/02 23:21:04;;;;;;;1.40;1.10;;;10.70;29.10;;;;;;10435509;28;20785;-71
2024/04/02 23:26:08;;;;;;;1.50;1.13;;;10.70;29.10;;;;;;10421442;28;20787;-71
2024/04/02 23:31:10;;;;;;;1.30;1.20;;;10.80;29.30;;;;;;10414067;28;22334;-71
2024/04/02 23:36:12;;;;;;;2.10;1.60;;;10.80;28.90;;;;;;10419007;28;20252;-71
2024/04/02 23:41:16;;;;;;;2.77;1.63;;;10.80;28.90;;;;;;10419405;28;20249;-71
2024/04/02 23:46:18;;;;;;;2.50;1.50;;;10.80;29.10;;;;;;10418119;28;20715;-71
2024/04/02 23:51:23;;;;;;;2.07;1.30;;;10.70;28.80;;;;;;10421441;28;20249;-71
2024/04/02 23:56:26;;;;;;;2.10;1.40;;;10.70;29.10;;;;;;10419973;28;20251;-71
